Time;durP1;ratioP1;P1;durP2;ratioP2;P2;SDS_P1;SDS_P2;PMS_P1;PMS_P2;Temp;Humidity;BMP_temperature;BMP_pressure;BME280_temperature;BME280_humidity;BME280_pressure;Samples;Min_cycle;Max_cycle;Signal;HPM_P1;HPM_P2
2023/01/22 00:02:02;;;;;;;12.07;5.23;;;-0.30;99.90;;;0.03;100.00;99114.69;5036233;28;20557;-78
2023/01/22 00:04:32;;;;;;;10.13;5.83;;;-0.30;99.90;;;0.07;100.00;99112.75;5035593;28;20965;-78
2023/01/22 00:07:01;;;;;;;11.17;5.63;;;-0.40;99.90;;;0.00;100.00;99110.53;5030952;28;20569;-78
2023/01/22 00:09:31;;;;;;;10.37;5.80;;;-0.50;99.90;;;0.04;100.00;99112.91;5032805;28;21192;-78
2023/01/22 00:12:00;;;;;;;8.67;5.80;;;-0.40;99.90;;;0.00;100.00;99107.19;5035691;28;20549;-78
2023/01/22 00:14:29;;;;;;;11.93;6.13;;;-0.40;99.90;;;0.01;100.00;99103.66;5035086;28;20479;-78
2023/01/22 00:17:01;;;;;;;9.87;5.10;;;-0.40;99.90;;;0.01;100.00;99108.81;5037583;28;20494;-78
2023/01/22 00:19:30;;;;;;;8.73;5.10;;;-0.40;99.90;;;0.01;100.00;99106.22;5036322;28;20552;-78
2023/01/22 00:21:59;;;;;;;15.63;6.83;;;-0.40;99.90;;;0.00;100.00;99104.59;5035177;28;20499;-78
2023/01/22 00:24:28;;;;;;;15.00;7.13;;;-0.50;99.90;;;-0.01;100.00;99097.81;5035965;28;20472;-78
2023/01/22 00:26:58;;;;;;;10.80;5.93;;;-0.50;99.90;;;-0.01;100.00;99095.22;5036603;28;20500;-78
2023/01/22 00:29:27;;;;;;;10.40;6.57;;;-0.40;99.90;;;0.00;100.00;99094.31;5035021;28;20485;-78
2023/01/22 00:31:56;;;;;;;9.90;5.40;;;-0.50;99.90;;;0.00;100.00;99099.47;5035986;28;20503;-78
2023/01/22 00:34:27;;;;;;;11.43;5.60;;;-0.40;99.90;;;-0.01;100.00;99093.50;5035014;28;20601;-78
2023/01/22 00:36:55;;;;;;;10.20;6.50;;;-0.40;99.90;;;0.00;100.00;99099.47;5037571;28;20494;-78
2023/01/22 00:39:25;;;;;;;9.27;6.20;;;-0.40;99.90;;;-0.02;100.00;99099.53;5036246;28;20962;-78
2023/01/22 00:41:55;;;;;;;8.13;5.27;;;-0.40;99.90;;;-0.01;100.00;99090.09;5033482;28;20474;-78
2023/01/22 00:44:25;;;;;;;10.57;6.53;;;-0.40;99.90;;;-0.05;100.00;99089.47;5034977;28;21042;-78
2023/01/22 00:46:54;;;;;;;14.20;6.50;;;-0.50;99.90;;;-0.03;100.00;99091.91;5037898;28;20461;-78
2023/01/22 00:49:25;;;;;;;9.17;6.27;;;-0.50;99.90;;;-0.01;100.00;99087.53;5036107;28;20488;-78
2023/01/22 00:51:54;;;;;;;12.27;7.20;;;-0.50;99.90;;;-0.03;100.00;99079.06;5036679;28;20505;-78
2023/01/22 00:54:24;;;;;;;15.20;7.60;;;-0.50;99.90;;;-0.01;100.00;99080.63;5037092;28;20545;-78
2023/01/22 00:56:53;;;;;;;11.33;6.40;;;-0.50;99.90;;;-0.02;100.00;99078.97;5039570;28;20536;-78
2023/01/22 00:59:22;;;;;;;12.43;6.50;;;-0.50;99.90;;;-0.01;100.00;99088.34;5040191;28;20521;-78
2023/01/22 01:01:51;;;;;;;13.30;7.50;;;-0.50;99.90;;;-0.09;100.00;99082.84;5038747;28;20476;-78
2023/01/22 01:04:21;;;;;;;14.20;7.33;;;-0.50;99.90;;;-0.05;100.00;99086.88;5038911;28;20466;-78
2023/01/22 01:06:52;;;;;;;13.20;6.70;;;-0.50;99.90;;;-0.04;100.00;99082.56;5040843;28;20537;-78
2023/01/22 01:09:23;;;;;;;11.07;7.00;;;-0.40;99.90;;;-0.01;100.00;99092.66;5040927;28;20468;-78
2023/01/22 01:11:52;;;;;;;11.73;7.03;;;-0.40;99.90;;;0.00;100.00;99084.84;5037523;28;20985;-78
2023/01/22 01:14:22;;;;;;;12.10;6.73;;;-0.40;99.90;;;0.06;100.00;99085.38;5039056;28;20503;-78
2023/01/22 01:16:51;;;;;;;11.60;6.63;;;-0.40;99.90;;;0.05;100.00;99084.56;5039465;28;21072;-79
2023/01/22 01:19:20;;;;;;;10.80;6.77;;;-0.40;99.90;;;0.05;100.00;99083.72;5038169;28;20464;-78
2023/01/22 01:21:52;;;;;;;12.37;7.07;;;-0.40;99.90;;;0.04;100.00;99084.66;5036024;28;20462;-78
2023/01/22 01:24:20;;;;;;;10.30;5.83;;;-0.40;99.90;;;0.04;100.00;99085.47;5035967;28;20466;-78
2023/01/22 01:26:50;;;;;;;10.60;6.20;;;-0.40;99.90;;;0.03;100.00;99073.56;5037110;28;20497;-78
2023/01/22 01:29:19;;;;;;;10.93;6.90;;;-0.40;99.90;;;0.04;100.00;99075.19;5037821;28;20505;-78
2023/01/22 01:31:52;;;;;;;9.47;6.47;;;-0.40;99.90;;;0.09;100.00;99082.63;5038061;28;20474;-78
2023/01/22 01:34:24;;;;;;;9.47;6.07;;;-0.30;99.90;;;0.04;100.00;99070.06;5037071;28;20569;-78
2023/01/22 01:36:56;;;;;;;10.33;6.03;;;-0.40;99.90;;;0.07;100.00;99075.00;5037705;28;20554;-78
2023/01/22 01:39:25;;;;;;;11.63;6.17;;;-0.30;99.90;;;0.06;100.00;99069.97;5040848;28;21031;-77
2023/01/22 01:41:55;;;;;;;9.47;6.03;;;-0.30;99.90;;;0.06;100.00;99068.22;5038923;28;20475;-78
2023/01/22 01:44:26;;;;;;;8.93;6.03;;;-0.30;99.90;;;0.07;100.00;99080.13;5037956;28;20475;-78
2023/01/22 01:47:04;;;;;;;15.90;5.73;;;-0.30;99.90;;;0.06;100.00;99069.97;5037812;28;20463;-78
2023/01/22 01:49:44;;;;;;;10.70;6.20;;;-0.30;99.90;;;-0.02;100.00;99065.31;5040050;28;20470;-78
2023/01/22 01:52:16;;;;;;;10.03;5.50;;;-0.40;99.90;;;-0.01;100.00;99069.53;5036731;28;20509;-78
2023/01/22 01:54:50;;;;;;;11.07;6.40;;;-0.30;99.90;;;-0.02;100.00;99075.59;5037621;28;20488;-78
2023/01/22 01:57:27;;;;;;;7.20;5.23;;;-0.40;99.90;;;0.03;100.00;99070.16;5037840;28;20579;-77
2023/01/22 01:59:59;;;;;;;10.67;5.17;;;-0.40;99.90;;;0.06;100.00;99068.22;5036711;28;21209;-78
2023/01/22 02:02:28;;;;;;;11.40;6.30;;;-0.40;99.90;;;0.05;100.00;99070.88;5036176;28;20529;-78
2023/01/22 02:04:58;;;;;;;9.30;6.03;;;-0.40;99.90;;;0.05;100.00;99074.28;5034871;28;20970;-78
2023/01/22 02:07:30;;;;;;;7.43;5.73;;;-0.40;99.90;;;0.05;100.00;99076.84;5037239;28;20464;-78
2023/01/22 02:09:59;;;;;;;10.83;5.80;;;-0.30;99.90;;;0.06;100.00;99068.22;5048892;28;20832;-78
2023/01/22 02:12:30;;;;;;;10.23;6.30;;;-0.40;99.90;;;0.03;100.00;99068.41;5035738;28;20466;-78
2023/01/22 02:15:03;;;;;;;12.37;5.80;;;-0.40;99.90;;;0.07;100.00;99067.28;5035554;28;21014;-78
2023/01/22 02:17:32;;;;;;;16.23;7.03;;;-0.40;99.90;;;0.09;100.00;99067.19;5035729;28;20501;-78
2023/01/22 02:20:03;;;;;;;9.80;6.30;;;-0.30;99.90;;;0.10;100.00;99084.28;5036693;28;20467;-78
2023/01/22 02:22:38;;;;;;;11.57;7.03;;;-0.30;99.90;;;0.09;100.00;99077.47;5039665;28;21176;-78
2023/01/22 02:25:10;;;;;;;9.87;6.10;;;-0.30;99.90;;;0.06;100.00;99068.22;5036104;28;21157;-78
2023/01/22 02:27:39;;;;;;;11.30;6.47;;;-0.40;99.90;;;0.08;100.00;99076.66;5037149;28;20495;-78
2023/01/22 02:30:12;;;;;;;10.97;5.97;;;-0.30;99.90;;;0.11;100.00;99073.06;5035151;28;20462;-78
2023/01/22 02:32:42;;;;;;;13.10;7.07;;;-0.30;99.90;;;0.11;100.00;99068.75;5039547;28;20460;-78
2023/01/22 02:35:11;;;;;;;14.73;6.80;;;-0.30;99.90;;;0.07;100.00;99069.84;5036022;28;20504;-78
2023/01/22 02:37:42;;;;;;;8.47;5.20;;;-0.20;99.90;;;0.11;100.00;99076.47;5038137;28;20469;-79
2023/01/22 02:40:15;;;;;;;10.77;6.40;;;-0.20;99.90;;;0.08;100.00;99068.09;5036710;28;21259;-79
2023/01/22 02:42:45;;;;;;;9.40;5.73;;;-0.30;99.90;;;0.05;100.00;99070.88;5035401;28;20463;-78
2023/01/22 02:45:15;;;;;;;12.70;6.17;;;-0.40;99.90;;;0.05;100.00;99060.59;5035263;28;20485;-78
2023/01/22 02:47:46;;;;;;;11.93;7.27;;;-0.30;99.90;;;0.09;100.00;99067.19;5036532;28;20470;-77
2023/01/22 02:50:17;;;;;;;13.07;6.13;;;-0.30;99.90;;;0.10;100.00;99061.16;5035768;28;20490;-78
2023/01/22 02:52:48;;;;;;;11.30;5.40;;;-0.30;99.90;;;0.08;100.00;99063.81;5036757;28;20834;-77
2023/01/22 02:55:20;;;;;;;15.93;6.70;;;-0.30;99.90;;;0.08;100.00;99066.38;5034122;28;20498;-78
2023/01/22 02:57:50;;;;;;;11.70;5.83;;;-0.30;99.90;;;0.08;100.00;99052.69;5034571;28;20489;-78
2023/01/22 03:00:21;;;;;;;11.13;8.00;;;-0.30;99.90;;;0.10;100.00;99054.25;5034073;28;20511;-78
2023/01/22 03:02:52;;;;;;;12.63;6.70;;;-0.30;99.90;;;0.12;100.00;99062.69;5035050;28;20854;-77
2023/01/22 03:05:21;;;;;;;11.20;6.00;;;-0.30;99.90;;;0.08;100.00;99056.09;5034126;28;20503;-78
2023/01/22 03:07:52;;;;;;;11.57;6.17;;;-0.30;99.90;;;0.07;100.00;99056.19;5037084;28;20548;-78
2023/01/22 03:10:22;;;;;;;18.77;7.27;;;-0.30;99.90;;;0.05;100.00;99053.72;5034162;28;20539;-78
2023/01/22 03:21:17;;;;;;;11.90;6.10;;;-0.30;99.90;;;0.12;100.00;99047.25;5035169;28;20472;-78
2023/01/22 03:23:51;;;;;;;11.00;6.80;;;-0.20;99.90;;;0.12;100.00;99054.16;5036187;28;20487;-78
2023/01/22 03:26:22;;;;;;;9.67;5.63;;;-0.30;99.90;;;0.13;100.00;99050.66;5036902;28;20458;-78
2023/01/22 03:28:52;;;;;;;12.30;7.10;;;-0.20;99.90;;;0.08;100.00;99045.81;5036596;28;20558;-77
2023/01/22 03:31:22;;;;;;;7.50;5.67;;;-0.30;99.90;;;0.13;100.00;99043.78;5037754;28;20836;-77
2023/01/22 03:33:52;;;;;;;10.20;6.03;;;-0.30;99.90;;;0.16;100.00;99051.28;5037305;28;20483;-78
2023/01/22 03:36:22;;;;;;;13.07;7.00;;;-0.20;99.90;;;0.18;100.00;99049.44;5036049;28;20508;-78
2023/01/22 03:38:53;;;;;;;8.87;5.67;;;-0.20;99.90;;;0.22;100.00;99063.75;5039004;28;20455;-78
2023/01/22 03:41:24;;;;;;;16.43;6.77;;;-0.10;99.90;;;0.21;100.00;99054.38;5037404;28;20535;-78
2023/01/22 03:43:57;;;;;;;11.10;7.07;;;-0.10;99.90;;;0.23;100.00;99055.13;5037715;28;21203;-78
2023/01/22 03:46:27;;;;;;;9.07;5.63;;;-0.20;99.90;;;0.22;100.00;99061.19;5036628;28;20471;-78
2023/01/22 03:48:57;;;;;;;10.37;6.80;;;-0.20;99.90;;;0.22;100.00;99058.63;5034971;28;20465;-78
2023/01/22 03:51:27;;;;;;;9.00;5.97;;;-0.20;99.90;;;0.21;100.00;99059.53;5034131;28;20498;-77
2023/01/22 03:53:59;;;;;;;11.10;6.07;;;-0.20;99.90;;;0.20;100.00;99055.31;5036650;28;20469;-78
2023/01/22 03:56:31;;;;;;;8.70;5.33;;;-0.20;99.90;;;0.24;100.00;99055.97;5035651;28;20526;-78
2023/01/22 03:58:59;;;;;;;12.60;6.57;;;-0.20;99.90;;;0.26;100.00;99054.09;5034200;28;21085;-78
2023/01/22 04:01:30;;;;;;;9.60;5.83;;;-0.10;99.90;;;0.25;100.00;99055.84;5034918;28;20506;-78
2023/01/22 04:03:59;;;;;;;9.13;5.90;;;-0.20;99.90;;;0.24;100.00;99049.06;5034928;28;20811;-78
2023/01/22 04:06:30;;;;;;;10.17;6.77;;;-0.10;99.90;;;0.28;100.00;99047.94;5033200;28;20469;-78
2023/01/22 04:09:01;;;;;;;10.80;6.53;;;-0.10;99.90;;;0.27;100.00;99051.44;5035628;28;20498;-78
2023/01/22 04:11:31;;;;;;;11.10;5.90;;;-0.10;99.90;;;0.26;100.00;99046.38;5032492;28;20523;-78
2023/01/22 04:14:00;;;;;;;11.73;6.47;;;-0.20;99.90;;;0.29;100.00;99052.16;5034639;28;20962;-78
2023/01/22 04:16:29;;;;;;;9.60;5.43;;;-0.10;99.90;;;0.25;100.00;99048.13;5034032;28;20846;-78
2023/01/22 04:18:59;;;;;;;10.53;6.17;;;-0.10;99.90;;;0.28;100.00;99047.94;5035418;28;20539;-78
2023/01/22 04:21:29;;;;;;;10.33;5.97;;;-0.10;99.90;;;0.29;100.00;99047.00;5032028;28;21261;-78
2023/01/22 04:23:58;;;;;;;12.60;6.97;;;-0.10;99.90;;;0.30;100.00;99042.69;5033911;28;20463;-78
2023/01/22 04:26:30;;;;;;;11.60;6.73;;;-0.10;99.90;;;0.29;100.00;99053.91;5036791;28;20966;-78
2023/01/22 04:28:59;;;;;;;10.50;5.57;;;-0.10;99.90;;;0.31;100.00;99047.72;5037542;28;20545;-78
2023/01/22 04:31:30;;;;;;;11.80;5.37;;;-0.10;99.90;;;0.33;100.00;99050.22;5042645;28;20489;-78
2023/01/22 04:34:00;;;;;;;11.30;6.47;;;-0.10;99.90;;;0.30;100.00;99051.25;5039680;28;20518;-78
2023/01/22 04:36:30;;;;;;;7.90;6.20;;;-0.10;99.90;;;0.28;100.00;99057.38;5040669;28;20504;-77
2023/01/22 04:39:00;;;;;;;9.30;6.60;;;-0.20;99.90;;;0.30;100.00;99053.81;5037364;28;21276;-78
2023/01/22 04:41:30;;;;;;;8.13;5.03;;;-0.10;99.90;;;0.31;100.00;99045.16;5037992;28;21007;-78
2023/01/22 04:44:00;;;;;;;10.60;5.67;;;-0.20;99.90;;;0.31;100.00;99052.88;5036597;28;20508;-77
2023/01/22 04:46:30;;;;;;;12.27;5.67;;;-0.10;99.90;;;0.31;100.00;99042.59;5039082;28;20501;-78
2023/01/22 04:49:01;;;;;;;9.33;6.23;;;-0.10;99.90;;;0.30;100.00;99046.09;5038164;28;20471;-78
2023/01/22 04:51:31;;;;;;;12.80;7.20;;;-0.20;99.90;;;0.31;100.00;99055.44;5038726;28;20487;-77
2023/01/22 04:54:01;;;;;;;9.40;5.77;;;-0.10;99.90;;;0.30;100.00;99046.09;5040443;28;20503;-78
2023/01/22 04:56:31;;;;;;;7.10;4.77;;;-0.20;99.90;;;0.35;100.00;99046.63;5040628;28;20581;-78
2023/01/22 04:59:02;;;;;;;10.40;6.47;;;-0.10;99.90;;;0.33;100.00;99045.91;5039358;28;20469;-78
2023/01/22 05:01:32;;;;;;;12.73;6.53;;;-0.10;99.90;;;0.33;100.00;99045.06;5040756;28;20560;-78
2023/01/22 05:04:02;;;;;;;9.77;5.83;;;-0.10;99.90;;;0.36;100.00;99047.44;5041080;28;20463;-77
2023/01/22 05:06:31;;;;;;;9.07;5.57;;;-0.10;99.90;;;0.33;100.00;99043.34;5041332;28;20487;-77
2023/01/22 05:09:00;;;;;;;9.30;5.73;;;-0.10;99.90;;;0.32;100.00;99051.97;5039311;28;20565;-78
2023/01/22 05:11:32;;;;;;;9.93;5.70;;;-0.10;99.90;;;0.33;100.00;99050.22;5037813;28;20529;-77
2023/01/22 05:14:04;;;;;;;13.47;5.77;;;-0.10;99.90;;;0.31;100.00;99049.50;5037961;28;20554;-77
2023/01/22 05:16:32;;;;;;;10.30;5.80;;;-0.10;99.90;;;0.28;100.00;99053.06;5036779;28;20496;-78
2023/01/22 05:19:02;;;;;;;9.60;6.10;;;-0.20;99.90;;;0.32;100.00;99049.38;5038867;28;20475;-78
2023/01/22 05:21:33;;;;;;;8.67;5.53;;;-0.10;99.90;;;0.33;100.00;99045.91;5036245;28;20462;-77
2023/01/22 05:24:04;;;;;;;8.93;5.30;;;-0.10;99.90;;;0.36;100.00;99050.84;5037891;28;20555;-78
2023/01/22 05:26:35;;;;;;;18.10;10.90;;;-0.10;99.90;;;0.34;100.00;99051.88;5036968;28;20546;-74
2023/01/22 05:29:05;;;;;;;9.70;6.07;;;-0.20;99.90;;;0.35;100.00;99054.34;5039459;28;20526;-78
2023/01/22 05:31:35;;;;;;;8.70;5.53;;;-0.10;99.90;;;0.38;100.00;99061.06;5039805;28;20465;-78
2023/01/22 05:34:04;;;;;;;7.37;5.47;;;-0.10;99.90;;;0.38;100.00;99053.34;5032969;28;21233;-78
2023/01/22 05:36:33;;;;;;;8.77;5.43;;;0.00;99.90;;;0.37;100.00;99062.78;5034321;28;20571;-76
2023/01/22 05:39:03;;;;;;;8.43;5.37;;;0.00;99.90;;;0.36;100.00;99058.56;5037088;28;20469;-78
2023/01/22 05:41:34;;;;;;;10.03;5.53;;;0.00;99.90;;;0.37;100.00;99056.81;5033560;28;20476;-78
2023/01/22 05:44:04;;;;;;;8.77;5.40;;;0.00;99.90;;;0.32;100.00;99053.69;5035808;28;20499;-78
2023/01/22 05:46:33;;;;;;;6.73;5.17;;;-0.10;99.90;;;0.35;100.00;99056.06;5033981;28;20459;-78
2023/01/22 05:49:03;;;;;;;8.33;5.00;;;-0.10;99.90;;;0.34;100.00;99063.00;5035256;28;20547;-78
2023/01/22 05:51:32;;;;;;;9.20;5.13;;;-0.10;99.90;;;0.33;100.00;99060.50;5034480;28;20719;-78
2023/01/22 05:54:03;;;;;;;10.83;6.37;;;-0.10;99.90;;;0.34;100.00;99062.16;5037145;28;20465;-78
2023/01/22 05:56:34;;;;;;;8.63;4.20;;;-0.10;99.90;;;0.35;100.00;99063.78;5036337;28;20976;-78
2023/01/22 05:59:05;;;;;;;8.47;5.77;;;-0.10;99.90;;;0.34;100.00;99063.00;5036285;28;20474;-76
2023/01/22 06:01:37;;;;;;;7.83;5.00;;;0.00;99.90;;;0.33;100.00;99070.78;5052346;28;20465;-78
2023/01/22 06:04:07;;;;;;;6.37;4.50;;;-0.10;99.90;;;0.32;100.00;99072.53;5040320;28;20804;-78
2023/01/22 06:06:36;;;;;;;6.47;4.57;;;-0.10;99.90;;;0.34;100.00;99068.13;5037697;28;20471;-78
2023/01/22 06:09:06;;;;;;;8.47;5.00;;;-0.10;99.90;;;0.34;100.00;99067.31;5040861;28;20479;-78
2023/01/22 06:11:37;;;;;;;8.53;5.00;;;-0.10;99.90;;;0.32;100.00;99074.28;5054814;28;20562;-78
2023/01/22 06:14:09;;;;;;;8.37;5.13;;;-0.10;99.90;;;0.34;100.00;99075.03;5038558;28;20467;-78
2023/01/22 06:16:39;;;;;;;5.67;4.40;;;0.00;99.90;;;0.33;100.00;99081.91;5038939;28;20464;-78
2023/01/22 06:19:09;;;;;;;6.60;4.90;;;-0.10;99.90;;;0.36;100.00;99078.31;5040254;28;20567;-78
2023/01/22 06:21:38;;;;;;;9.80;5.77;;;0.00;99.90;;;0.34;100.00;99077.59;5036974;28;20476;-78
2023/01/22 06:24:09;;;;;;;9.23;5.20;;;0.00;99.90;;;0.35;100.00;99082.63;5038262;28;20561;-78
2023/01/22 06:26:41;;;;;;;7.17;5.23;;;0.00;99.90;;;0.35;100.00;99084.38;5034946;28;20463;-78
2023/01/22 06:29:13;;;;;;;8.30;4.80;;;0.00;99.90;;;0.34;100.00;99082.75;5033509;28;20462;-78
2023/01/22 06:31:42;;;;;;;15.63;7.47;;;0.00;99.90;;;0.33;100.00;99071.63;5035347;28;20471;-79
2023/01/22 06:34:13;;;;;;;7.80;5.70;;;-0.10;99.90;;;0.34;100.00;99073.28;5016654;28;20495;-79
2023/01/22 06:36:46;;;;;;;7.80;4.80;;;-0.10;99.90;;;0.37;100.00;99067.94;5048086;28;20471;-78
2023/01/22 06:39:16;;;;;;;9.17;5.50;;;-0.10;99.90;;;0.34;100.00;99068.13;5035123;28;20473;-79
2023/01/22 06:41:47;;;;;;;6.60;5.30;;;-0.10;99.90;;;0.34;100.00;99077.59;5033987;28;20465;-79
2023/01/22 06:44:19;;;;;;;10.37;4.97;;;-0.10;99.90;;;0.37;100.00;99079.97;5031948;28;20487;-78
2023/01/22 06:46:48;;;;;;;7.43;4.93;;;0.00;99.90;;;0.37;100.00;99073.09;5033684;28;20460;-79
2023/01/22 06:49:19;;;;;;;7.30;4.80;;;0.00;99.90;;;0.38;100.00;99081.63;5036908;28;20486;-79
2023/01/22 06:51:49;;;;;;;8.90;5.73;;;0.00;99.90;;;0.41;100.00;99084.00;5036888;28;21689;-79
2023/01/22 06:54:19;;;;;;;6.73;4.50;;;0.00;99.90;;;0.41;100.00;99089.97;5033721;28;20532;-79
2023/01/22 06:56:49;;;;;;;6.33;4.70;;;0.00;99.90;;;0.40;100.00;99087.47;5034601;28;20526;-79
2023/01/22 06:59:18;;;;;;;10.63;5.43;;;0.00;99.90;;;0.36;100.00;99092.00;5035896;28;20893;-79
2023/01/22 07:01:48;;;;;;;5.43;4.40;;;0.00;99.90;;;0.38;100.00;99104.78;5034856;28;20461;-78
2023/01/22 07:04:17;;;;;;;8.00;5.20;;;0.00;99.90;;;0.34;100.00;99096.44;5034634;28;21173;-78
2023/01/22 07:06:47;;;;;;;7.63;4.80;;;-0.10;99.90;;;0.36;100.00;99101.47;5033088;28;20966;-79
2023/01/22 07:09:15;;;;;;;7.93;4.40;;;0.00;99.90;;;0.38;100.00;99102.19;5036480;28;21283;-78
2023/01/22 07:11:45;;;;;;;5.63;4.67;;;0.00;99.90;;;0.31;100.00;99101.75;5035046;28;20476;-80
2023/01/22 07:14:15;;;;;;;7.50;5.03;;;-0.10;99.90;;;0.35;100.00;99105.78;5035485;28;20464;-79
2023/01/22 07:16:57;;;;;;;6.73;4.37;;;0.00;99.90;;;0.35;100.00;99110.91;5034942;28;20464;-79
2023/01/22 07:19:27;;;;;;;6.53;4.37;;;0.00;99.90;;;0.34;100.00;99109.28;5033087;28;20592;-79
2023/01/22 07:21:57;;;;;;;9.60;5.27;;;0.00;99.90;;;0.37;100.00;99113.41;5031746;28;20470;-81
2023/01/22 07:24:28;;;;;;;6.27;4.70;;;0.00;99.90;;;0.36;100.00;99114.31;5031882;28;20548;-75
2023/01/22 07:26:58;;;;;;;8.50;4.90;;;0.00;99.90;;;0.39;100.00;99121.84;5031645;28;20471;-78
2023/01/22 07:29:28;;;;;;;6.50;4.40;;;0.00;99.90;;;0.38;100.00;99118.44;5034181;28;20460;-78
2023/01/22 07:32:02;;;;;;;5.73;4.97;;;0.00;99.90;;;0.38;100.00;99123.56;5033342;28;20473;-78
2023/01/22 07:34:32;;;;;;;6.60;4.50;;;0.00;99.90;;;0.41;100.00;99127.72;5034869;28;20467;-78
2023/01/22 07:37:02;;;;;;;6.73;5.13;;;-0.10;99.90;;;0.37;100.00;99131.41;5032345;28;20900;-78
2023/01/22 07:39:32;;;;;;;6.53;5.10;;;-0.10;99.90;;;0.39;100.00;99135.53;5033822;28;20867;-78
2023/01/22 07:42:01;;;;;;;9.70;4.57;;;-0.10;99.90;;;0.41;100.00;99143.16;5032858;28;20678;-79
2023/01/22 07:44:32;;;;;;;5.00;4.20;;;-0.10;99.90;;;0.42;100.00;99142.22;5032377;28;20476;-78
2023/01/22 07:47:02;;;;;;;5.90;4.07;;;0.00;99.90;;;0.40;100.00;99141.50;5032808;28;20456;-78
2023/01/22 07:49:31;;;;;;;9.10;4.90;;;0.00;99.90;;;0.41;100.00;99146.56;5035204;28;20472;-79
2023/01/22 07:52:00;;;;;;;5.07;4.13;;;0.10;99.90;;;0.44;100.00;99150.69;5034666;28;20507;-78
2023/01/22 07:54:32;;;;;;;6.00;4.30;;;0.10;99.90;;;0.44;100.00;99151.50;5033282;28;20899;-79
2023/01/22 07:57:03;;;;;;;8.73;5.20;;;0.10;99.90;;;0.47;100.00;99146.16;5032886;28;20851;-79
2023/01/22 07:59:35;;;;;;;22.87;11.83;;;0.00;99.90;;;0.45;100.00;99148.00;5034077;28;20533;-79
2023/01/22 08:02:05;;;;;;;8.60;4.93;;;0.00;99.90;;;0.48;100.00;99152.97;5035031;28;20478;-78
2023/01/22 08:04:36;;;;;;;4.97;3.87;;;0.10;99.90;;;0.50;100.00;99142.56;5035564;28;20460;-78
2023/01/22 08:07:05;;;;;;;8.00;4.77;;;0.10;99.90;;;0.47;100.00;99151.31;5034125;28;20494;-78
2023/01/22 08:09:36;;;;;;;6.90;4.30;;;0.00;99.90;;;0.49;100.00;99153.78;5036106;28;20568;-79
2023/01/22 08:12:07;;;;;;;7.00;4.00;;;0.10;99.90;;;0.52;100.00;99155.34;5034204;28;20467;-80
2023/01/22 08:14:38;;;;;;;5.20;3.93;;;0.10;99.90;;;0.55;100.00;99157.72;5034103;28;20501;-81
2023/01/22 08:17:07;;;;;;;6.13;3.63;;;0.10;99.90;;;0.48;100.00;99150.41;5033437;28;21009;-80
2023/01/22 08:19:38;;;;;;;5.40;4.10;;;0.10;99.90;;;0.52;100.00;99163.06;5033428;28;20509;-80
2023/01/22 08:22:08;;;;;;;5.70;3.73;;;0.20;99.90;;;0.52;100.00;99162.13;5033179;28;20480;-80
2023/01/22 08:24:37;;;;;;;5.93;4.10;;;0.00;99.90;;;0.54;100.00;99162.03;5033805;28;21049;-80
2023/01/22 08:27:07;;;;;;;4.87;3.67;;;0.10;99.90;;;0.52;100.00;99169.84;5034147;28;20455;-80
2023/01/22 08:29:38;;;;;;;6.83;4.77;;;0.20;99.90;;;0.57;100.00;99171.31;5034298;28;20592;-80
2023/01/22 08:32:08;;;;;;;5.20;3.93;;;0.20;99.90;;;0.59;100.00;99175.41;5033773;28;20516;-80
2023/01/22 08:34:37;;;;;;;4.27;3.87;;;0.20;99.90;;;0.58;100.00;99181.50;5033559;28;20523;-80
2023/01/22 08:37:07;;;;;;;5.30;3.63;;;0.10;99.90;;;0.59;100.00;99184.91;5035660;28;20493;-80
2023/01/22 08:39:36;;;;;;;4.90;3.80;;;0.20;99.90;;;0.60;100.00;99183.97;5033240;28;20525;-80
2023/01/22 08:42:07;;;;;;;5.53;4.37;;;0.10;99.90;;;0.63;100.00;99181.19;5034295;28;20502;-80
2023/01/22 08:44:38;;;;;;;5.00;4.50;;;0.20;99.90;;;0.64;100.00;99188.84;5034110;28;20557;-80
2023/01/22 08:47:10;;;;;;;7.63;3.73;;;0.20;99.90;;;0.63;100.00;99188.91;5035371;28;20466;-80
2023/01/22 08:49:39;;;;;;;4.67;3.93;;;0.10;99.90;;;0.64;100.00;99199.13;5034630;28;20495;-76
2023/01/22 08:52:10;;;;;;;5.47;4.10;;;0.20;99.90;;;0.65;100.00;99194.81;5032722;28;20469;-80
2023/01/22 08:54:40;;;;;;;5.90;4.37;;;0.20;99.90;;;0.56;100.00;99196.22;5033052;28;20555;-80
2023/01/22 08:57:09;;;;;;;5.13;4.17;;;0.20;99.90;;;0.58;100.00;99196.13;5032191;28;20457;-78
2023/01/22 08:59:41;;;;;;;6.13;4.50;;;0.20;99.90;;;0.58;100.00;99193.56;5035246;28;20504;-79
2023/01/22 09:02:13;;;;;;;6.10;4.30;;;0.20;99.90;;;0.61;100.00;99194.19;5032226;28;20484;-79
2023/01/22 09:04:43;;;;;;;8.13;4.20;;;0.10;99.90;;;0.64;100.00;99198.31;5034068;28;20555;-79
2023/01/22 09:07:12;;;;;;;5.93;4.37;;;0.20;99.90;;;0.67;100.00;99198.09;5033853;28;20464;-78
2023/01/22 09:09:41;;;;;;;4.30;3.70;;;0.20;99.90;;;0.68;100.00;99194.63;5034519;28;20476;-80
2023/01/22 09:12:10;;;;;;;6.07;4.27;;;0.20;99.90;;;0.71;100.00;99205.53;5033826;28;20459;-80
2023/01/22 09:14:41;;;;;;;4.73;3.73;;;0.20;99.90;;;0.76;100.00;99202.69;5033407;28;20464;-79
2023/01/22 09:17:10;;;;;;;4.20;3.80;;;0.30;99.90;;;0.73;100.00;99202.88;5034188;28;20475;-80
2023/01/22 09:19:40;;;;;;;4.77;3.90;;;0.30;99.90;;;0.75;100.00;99206.19;5038824;28;20491;-80
2023/01/22 09:22:09;;;;;;;22.63;10.77;;;0.40;99.90;;;0.74;100.00;99209.66;5035223;28;20499;-75
2023/01/22 09:24:39;;;;;;;9.20;5.33;;;0.30;99.90;;;0.74;100.00;99204.53;5035592;28;20460;-80
2023/01/22 09:27:10;;;;;;;5.70;4.30;;;0.30;99.90;;;0.78;100.00;99211.13;5036697;28;20467;-80
2023/01/22 09:29:41;;;;;;;6.60;4.93;;;0.30;99.90;;;0.82;100.00;99203.13;5036654;28;20744;-80
2023/01/22 09:32:10;;;;;;;9.37;5.63;;;0.40;99.90;;;0.82;100.00;99205.69;5037077;28;20481;-80
2023/01/22 09:34:40;;;;;;;6.53;4.80;;;0.40;99.90;;;0.87;100.00;99202.81;5036945;28;20472;-80
2023/01/22 09:37:13;;;;;;;5.23;4.40;;;0.50;99.90;;;0.86;100.00;99209.72;5040406;28;20499;-80
2023/01/22 09:39:43;;;;;;;5.10;4.33;;;0.50;99.90;;;0.88;100.00;99207.88;5039782;28;20492;-79
2023/01/22 09:42:20;;;;;;;6.43;4.57;;;0.50;99.90;;;0.87;100.00;99207.97;5038641;28;20967;-80
2023/01/22 09:44:57;;;;;;;9.10;4.97;;;0.50;99.90;;;0.89;100.00;99211.28;5037238;28;20468;-80
2023/01/22 09:47:35;;;;;;;5.13;4.20;;;0.50;99.90;;;0.89;100.00;99213.84;5039555;28;20468;-80
2023/01/22 09:50:17;;;;;;;3.23;2.70;;;0.50;99.90;;;0.88;100.00;99209.63;5039315;28;20475;-80
2023/01/22 09:52:51;;;;;;;6.03;4.27;;;0.40;99.90;;;0.89;100.00;99206.13;5039522;28;21222;-79
2023/01/22 09:55:24;;;;;;;6.57;4.53;;;0.40;99.90;;;0.92;100.00;99213.66;5039855;28;20551;-80
2023/01/22 09:57:56;;;;;;;6.77;4.60;;;0.40;99.90;;;0.96;100.00;99207.41;5039448;28;20459;-80
2023/01/22 10:00:39;;;;;;;5.57;4.27;;;0.50;99.90;;;0.93;100.00;99210.16;5040892;28;20499;-80
2023/01/22 10:03:21;;;;;;;7.40;4.60;;;0.40;99.90;;;0.93;100.00;99208.41;5037680;28;20463;-80
2023/01/22 10:05:56;;;;;;;6.67;5.07;;;0.40;99.90;;;0.94;100.00;99215.19;5037715;28;20468;-80
2023/01/22 10:08:33;;;;;;;4.63;4.00;;;0.50;99.90;;;0.91;100.00;99225.69;5037924;28;20455;-80
2023/01/22 10:11:02;;;;;;;6.87;4.83;;;0.50;99.90;;;0.93;100.00;99216.16;5037709;28;20479;-76
2023/01/22 10:13:35;;;;;;;9.03;5.97;;;0.50;99.90;;;0.98;100.00;99224.38;5037554;28;20506;-80
2023/01/22 10:16:07;;;;;;;4.70;4.00;;;0.50;99.90;;;0.99;100.00;99227.78;5037196;28;20501;-80
2023/01/22 10:18:44;;;;;;;6.53;4.60;;;0.60;99.90;;;1.00;100.00;99224.31;5036526;28;20524;-79
2023/01/22 10:21:20;;;;;;;6.37;4.30;;;0.60;99.90;;;0.98;100.00;99220.97;5037515;28;20461;-80
2023/01/22 10:23:51;;;;;;;5.43;4.30;;;0.60;99.90;;;0.99;100.00;99220.91;5035148;28;20466;-80
2023/01/22 10:26:25;;;;;;;6.97;4.63;;;0.50;99.90;;;1.01;100.00;99218.22;5038884;28;21128;-80
2023/01/22 10:28:59;;;;;;;6.60;4.90;;;0.50;99.90;;;1.05;100.00;99218.84;5039550;28;20544;-80
2023/01/22 10:31:32;;;;;;;5.97;4.20;;;0.60;99.90;;;1.08;100.00;99231.53;5036978;28;20481;-80
2023/01/22 10:34:09;;;;;;;7.57;4.87;;;0.70;99.90;;;1.01;100.00;99226.75;5037813;28;20456;-79
2023/01/22 10:36:39;;;;;;;6.30;5.03;;;0.70;99.90;;;1.04;100.00;99227.50;5037943;28;20468;-80
2023/01/22 10:39:13;;;;;;;7.77;4.73;;;0.60;99.90;;;0.99;100.00;99225.22;5040003;28;20488;-80
2023/01/22 10:41:44;;;;;;;6.67;5.20;;;0.50;99.90;;;1.05;100.00;99219.66;5038674;28;20515;-80